createdAt,value
2018-10-16T00:01:04.177Z,72.88
2018-10-16T00:03:32.504Z,73.00
2018-10-16T00:06:00.841Z,72.48
2018-10-16T00:08:29.177Z,72.75
2018-10-16T00:10:57.509Z,73.43
2018-10-16T00:13:25.841Z,74.18
2018-10-16T00:15:54.177Z,73.72
2018-10-16T00:18:22.541Z,73.74
2018-10-16T00:20:50.874Z,73.69
2018-10-16T00:23:19.197Z,73.76
2018-10-16T00:25:47.804Z,73.53
2018-10-16T00:28:17.929Z,73.60
2018-10-16T00:30:47.473Z,74.17
2018-10-16T00:33:16.689Z,74.52
2018-10-16T00:35:47.362Z,74.95
2018-10-16T00:38:16.462Z,74.86
2018-10-16T00:40:46.098Z,74.96
2018-10-16T00:43:15.682Z,75.23
2018-10-16T00:45:45.579Z,75.01
2018-10-16T00:48:15.525Z,75.86
2018-10-16T00:50:46.201Z,75.63
2018-10-16T00:53:15.104Z,75.48
2018-10-16T00:55:45.401Z,75.90
2018-10-16T00:58:15.025Z,76.17
2018-10-16T01:00:44.189Z,76.89
2018-10-16T01:03:14.485Z,76.76
2018-10-16T01:05:44.438Z,77.01
2018-10-16T01:08:14.644Z,77.12
2018-10-16T01:10:43.149Z,76.96
2018-10-16T01:13:11.498Z,76.36
2018-10-16T01:15:39.924Z,76.44
2018-10-16T01:18:09.133Z,76.88
2018-10-16T01:20:37.473Z,76.93
2018-10-16T01:23:06.094Z,76.78
2018-10-16T01:25:34.434Z,76.84
2018-10-16T01:28:02.805Z,77.53
2018-10-16T01:30:31.165Z,77.97
2018-10-16T01:33:00.534Z,77.87
2018-10-16T01:35:29.761Z,78.24
2018-10-16T01:37:59.142Z,78.01
2018-10-16T01:40:27.494Z,78.23
2018-10-16T01:42:56.882Z,78.42
2018-10-16T01:45:25.243Z,78.07
2018-10-16T01:47:54.570Z,78.21
2018-10-16T01:50:23.086Z,78.19
2018-10-16T01:52:52.310Z,79.19
2018-10-16T01:55:21.674Z,79.01
2018-10-16T01:57:50.889Z,79.89
2018-10-16T02:00:19.287Z,79.80
2018-10-16T02:02:48.505Z,79.17
2018-10-16T02:05:17.833Z,79.34
2018-10-16T02:07:47.174Z,79.23
2018-10-16T02:10:16.533Z,79.51
2018-10-16T02:12:45.997Z,79.40
2018-10-16T02:15:15.645Z,79.17
2018-10-16T02:17:45.116Z,79.53
2018-10-16T02:20:14.365Z,80.14
2018-10-16T02:22:46.394Z,79.67
2018-10-16T02:25:16.698Z,79.92
2018-10-16T02:27:47.580Z,80.09
2018-10-16T02:30:16.892Z,79.63
2018-10-16T02:32:47.593Z,79.47
2018-10-16T02:35:16.832Z,79.52
2018-10-16T02:37:47.582Z,80.01
2018-10-16T02:40:17.363Z,79.66
2018-10-16T02:42:46.629Z,79.62
2018-10-16T02:45:17.449Z,78.92
2018-10-16T02:47:46.821Z,78.95
2018-10-16T02:50:17.533Z,79.08
2018-10-16T02:52:46.386Z,79.16
2018-10-16T02:55:16.488Z,79.52
2018-10-16T02:57:46.153Z,79.42
2018-10-16T03:00:15.769Z,80.08
2018-10-16T03:02:45.073Z,80.54
2018-10-16T03:05:14.779Z,80.12
2018-10-16T03:07:43.211Z,80.71
2018-10-16T03:10:11.553Z,80.98
2018-10-16T03:12:39.886Z,80.80
2018-10-16T03:15:12.030Z,80.12
2018-10-16T03:17:40.725Z,80.50
2018-10-16T03:20:11.058Z,80.75
2018-10-16T03:25:42.517Z,80.36
2018-10-16T03:28:12.423Z,81.17
2018-10-16T03:30:41.046Z,82.10
2018-10-16T03:33:09.916Z,82.00
2018-10-16T03:35:38.479Z,81.99
2018-10-16T03:38:07.062Z,81.06
2018-10-16T03:40:36.531Z,81.71
2018-10-16T03:43:06.284Z,81.30
2018-10-16T03:45:35.709Z,82.88
2018-10-16T03:48:05.370Z,82.28
2018-10-16T03:50:35.017Z,82.33
2018-10-16T03:53:04.511Z,82.14
2018-10-16T03:55:33.879Z,81.87
2018-10-16T03:58:03.574Z,81.66
2018-10-16T04:00:33.128Z,81.99
2018-10-16T04:03:02.591Z,81.99
2018-10-16T04:05:32.076Z,82.18
2018-10-16T04:08:01.571Z,82.17
2018-10-16T04:10:30.989Z,82.66
2018-10-16T04:13:00.608Z,82.59
2018-10-16T04:15:30.208Z,82.91
2018-10-16T04:17:59.929Z,82.52
2018-10-16T04:20:29.372Z,82.96
2018-10-16T04:22:58.795Z,83.43
2018-10-16T04:25:27.979Z,83.65
2018-10-16T04:27:57.288Z,85.09
2018-10-16T04:30:27.170Z,84.08
2018-10-16T04:32:56.415Z,83.56
2018-10-16T04:35:25.680Z,83.50
2018-10-16T04:37:54.595Z,83.61
2018-10-16T04:40:23.154Z,82.97
2018-10-16T04:42:51.807Z,83.11
2018-10-16T04:45:20.362Z,83.87
2018-10-16T04:47:48.949Z,84.22
2018-10-16T04:50:17.499Z,84.03
2018-10-16T04:52:46.052Z,84.03
2018-10-16T04:55:14.721Z,84.14
2018-10-16T04:57:43.251Z,83.89
2018-10-16T05:00:11.857Z,83.91
2018-10-16T05:02:41.551Z,84.38
2018-10-16T05:05:21.595Z,84.26
2018-10-16T05:07:51.577Z,84.41
2018-10-16T05:10:21.772Z,84.93
2018-10-16T05:12:50.665Z,85.46
2018-10-16T05:15:22.401Z,85.45
2018-10-16T05:17:52.060Z,85.03
2018-10-16T05:20:21.531Z,83.98
2018-10-16T05:22:50.062Z,83.49
2018-10-16T05:25:18.634Z,83.02
2018-10-16T05:27:47.252Z,82.77
2018-10-16T05:30:17.249Z,82.26
2018-10-16T05:32:45.851Z,82.16
2018-10-16T05:35:14.412Z,83.00
2018-10-16T05:37:43.021Z,84.34
2018-10-16T05:40:11.860Z,84.00
2018-10-16T05:42:40.820Z,83.79
2018-10-16T05:45:11.389Z,84.28
2018-10-16T05:47:40.933Z,84.85
2018-10-16T05:50:10.110Z,84.43
2018-10-16T05:52:38.817Z,84.21
2018-10-16T05:55:07.931Z,84.51
2018-10-16T05:57:36.590Z,84.74
2018-10-16T06:00:17.612Z,84.02
2018-10-16T06:02:47.015Z,83.83
2018-10-16T06:05:16.499Z,84.22
2018-10-16T06:07:45.952Z,84.62
2018-10-16T06:10:15.591Z,84.69
2018-10-16T06:12:45.032Z,84.93
2018-10-16T06:15:14.506Z,85.07
2018-10-16T06:17:44.696Z,84.57
2018-10-16T06:20:14.310Z,83.93
2018-10-16T06:22:43.886Z,84.48
2018-10-16T06:25:13.473Z,84.62
2018-10-16T06:27:43.684Z,84.74
2018-10-16T06:30:13.417Z,84.63
2018-10-16T06:32:42.832Z,84.73
2018-10-16T06:35:11.883Z,84.24
2018-10-16T06:37:41.333Z,84.02
2018-10-16T06:40:11.384Z,84.27
2018-10-16T06:42:40.485Z,84.45
2018-10-16T06:45:10.370Z,84.73
2018-10-16T06:47:39.046Z,83.94
2018-10-16T06:50:09.441Z,83.22
2018-10-16T06:52:38.036Z,83.14
2018-10-16T06:55:06.710Z,83.38
2018-10-16T06:57:35.254Z,83.87
2018-10-16T07:00:04.215Z,83.20
2018-10-16T07:02:32.768Z,83.25
2018-10-16T07:05:01.314Z,82.76
2018-10-16T07:07:29.876Z,82.91
2018-10-16T07:09:58.455Z,83.48
2018-10-16T07:12:27.663Z,83.12
2018-10-16T07:14:56.666Z,83.06
2018-10-16T07:17:25.611Z,82.50
2018-10-16T07:19:54.164Z,81.05
2018-10-16T07:22:23.150Z,79.35
2018-10-16T07:24:51.760Z,79.53
2018-10-16T07:27:20.382Z,78.84
2018-10-16T07:29:49.015Z,79.37
2018-10-16T07:32:17.573Z,78.49
2018-10-16T07:34:46.163Z,77.95
2018-10-16T07:37:14.759Z,78.00
2018-10-16T07:39:43.329Z,77.54
2018-10-16T07:42:11.874Z,77.47
2018-10-16T07:44:40.505Z,77.56
2018-10-16T07:47:09.120Z,76.20
2018-10-16T07:49:38.230Z,74.82
2018-10-16T07:52:06.916Z,74.28
2018-10-16T07:54:35.484Z,73.71
2018-10-16T07:57:04.084Z,74.09
2018-10-16T07:59:35.231Z,74.27
2018-10-16T08:02:14.046Z,74.46
2018-10-16T08:04:42.604Z,73.99
2018-10-16T08:07:11.173Z,74.64
2018-10-16T08:09:39.727Z,73.87
2018-10-16T08:12:10.388Z,74.78
2018-10-16T08:14:40.491Z,74.43
2018-10-16T08:17:09.898Z,73.52
2018-10-16T08:19:38.496Z,73.64
2018-10-16T08:22:07.079Z,74.19
2018-10-16T08:24:35.689Z,74.41
2018-10-16T08:27:04.268Z,74.32
2018-10-16T08:29:32.874Z,75.14
2018-10-16T08:32:01.459Z,74.32
2018-10-16T08:34:30.010Z,74.98
2018-10-16T08:36:59.586Z,75.26
2018-10-16T08:39:31.047Z,75.00
2018-10-16T08:45:17.487Z,75.36
2018-10-16T08:47:57.953Z,73.75
2018-10-16T08:50:39.120Z,74.57
2018-10-16T08:53:07.699Z,74.19
2018-10-16T08:55:36.881Z,73.07
2018-10-16T08:58:07.399Z,72.03
2018-10-16T09:00:37.361Z,71.59
2018-10-16T09:03:06.248Z,70.96
2018-10-16T09:05:35.822Z,70.49
2018-10-16T09:08:05.583Z,68.58
2018-10-16T09:10:35.183Z,69.18
2018-10-16T09:13:04.766Z,69.04
2018-10-16T09:15:34.342Z,68.36
2018-10-16T09:18:02.882Z,67.94
2018-10-16T09:20:32.345Z,66.87
2018-10-16T09:23:01.826Z,65.46
2018-10-16T09:25:31.267Z,65.47
2018-10-16T09:28:00.992Z,63.22
2018-10-16T09:30:30.226Z,61.69
2018-10-16T09:32:59.803Z,62.02
2018-10-16T09:35:29.688Z,60.99
2018-10-16T09:37:59.054Z,61.42
2018-10-16T09:40:27.896Z,60.55
2018-10-16T09:42:57.298Z,59.93
2018-10-16T09:45:26.635Z,58.15
2018-10-16T09:47:55.993Z,58.20
2018-10-16T09:50:25.854Z,57.58
2018-10-16T09:52:54.770Z,57.00
2018-10-16T09:55:23.389Z,56.17
2018-10-16T09:57:52.198Z,56.28
2018-10-16T10:00:26.140Z,54.40
2018-10-16T10:02:54.714Z,53.42
2018-10-16T10:05:23.331Z,52.40
2018-10-16T10:07:51.881Z,52.87
2018-10-16T10:10:20.778Z,52.80
2018-10-16T10:12:49.332Z,52.69
2018-10-16T10:15:17.863Z,53.44
2018-10-16T10:17:46.411Z,53.03
2018-10-16T10:20:14.916Z,53.47
2018-10-16T10:22:43.462Z,54.35
2018-10-16T10:25:12.924Z,53.84
2018-10-16T10:27:41.456Z,51.86
2018-10-16T10:30:11.877Z,51.81
2018-10-16T10:32:40.476Z,53.61
2018-10-16T10:35:10.669Z,52.74
2018-10-16T10:37:39.218Z,53.08
2018-10-16T10:40:07.928Z,52.84
2018-10-16T10:42:36.485Z,52.68
2018-10-16T10:45:05.883Z,51.90
2018-10-16T10:47:34.456Z,51.78
2018-10-16T10:50:03.114Z,51.29
2018-10-16T10:52:31.944Z,52.21
2018-10-16T10:55:02.280Z,52.98
2018-10-16T10:57:32.015Z,53.93
2018-10-16T11:00:01.831Z,51.76
2018-10-16T11:02:30.405Z,52.14
2018-10-16T11:04:58.959Z,51.56
2018-10-16T11:07:28.769Z,52.08
2018-10-16T11:09:58.773Z,53.98
2018-10-16T11:12:28.519Z,52.49
2018-10-16T11:14:57.748Z,52.47
2018-10-16T11:17:28.312Z,53.61
2018-10-16T11:19:57.788Z,52.50
2018-10-16T11:22:27.246Z,52.73
2018-10-16T11:24:56.911Z,53.00
2018-10-16T11:27:27.101Z,51.66
2018-10-16T11:29:55.694Z,51.07
2018-10-16T11:32:25.121Z,51.14
2018-10-16T11:34:53.633Z,49.49
2018-10-16T11:37:23.190Z,49.82
2018-10-16T11:39:52.692Z,48.06
2018-10-16T11:42:21.263Z,47.39
2018-10-16T11:44:49.800Z,46.83
2018-10-16T11:47:18.426Z,48.52
2018-10-16T11:49:47.008Z,47.13
2018-10-16T11:52:15.690Z,47.07
2018-10-16T11:54:45.125Z,46.27
2018-10-16T11:57:14.610Z,45.79
2018-10-16T11:59:43.154Z,43.48
2018-10-16T12:02:11.808Z,44.27
2018-10-16T12:04:40.305Z,45.25
2018-10-16T12:07:08.975Z,44.39
2018-10-16T12:09:37.483Z,44.79
2018-10-16T12:12:06.313Z,45.89
2018-10-16T12:14:34.868Z,46.79
2018-10-16T12:17:08.775Z,45.28
2018-10-16T12:19:47.516Z,45.65
2018-10-16T12:22:17.167Z,46.97
2018-10-16T12:24:45.717Z,46.33
2018-10-16T12:27:14.292Z,45.75
2018-10-16T12:29:42.858Z,47.61
2018-10-16T12:32:11.485Z,47.46
2018-10-16T12:34:40.891Z,45.52
2018-10-16T12:37:09.548Z,46.12
2018-10-16T12:39:38.123Z,46.83
2018-10-16T12:42:06.745Z,47.62
2018-10-16T12:44:35.339Z,48.16
2018-10-16T12:47:03.969Z,46.89
2018-10-16T12:49:32.522Z,47.45
2018-10-16T12:52:01.088Z,48.45
2018-10-16T12:54:30.558Z,47.53
2018-10-16T12:56:59.145Z,47.45
2018-10-16T12:59:27.876Z,47.40
2018-10-16T13:01:57.543Z,47.36
2018-10-16T13:04:28.083Z,46.68
2018-10-16T13:07:03.036Z,46.80
2018-10-16T13:09:32.614Z,47.60
2018-10-16T13:12:02.101Z,48.80
2018-10-16T13:14:31.630Z,48.76
2018-10-16T13:17:01.116Z,48.11
2018-10-16T13:19:30.524Z,48.80
2018-10-16T13:22:00.352Z,47.31
2018-10-16T13:24:29.964Z,47.57
2018-10-16T13:26:59.406Z,48.54
2018-10-16T13:29:29.036Z,47.85
2018-10-16T13:31:59.029Z,47.50
2018-10-16T13:34:29.592Z,48.27
2018-10-16T13:36:59.014Z,47.37
2018-10-16T13:39:28.769Z,46.21
2018-10-16T13:41:58.254Z,47.23
2018-10-16T13:44:28.765Z,47.42
2018-10-16T13:46:58.086Z,46.75
2018-10-16T13:49:28.654Z,46.44
2018-10-16T13:51:58.371Z,47.20
2018-10-16T13:54:28.296Z,47.27
2018-10-16T13:56:58.025Z,47.36
2018-10-16T13:59:27.541Z,48.47
2018-10-16T14:01:56.434Z,47.32
2018-10-16T14:04:25.755Z,47.64
2018-10-16T14:06:54.647Z,47.25
2018-10-16T14:09:25.931Z,47.54
2018-10-16T14:11:54.682Z,48.11
2018-10-16T14:14:23.331Z,48.15
2018-10-16T14:16:52.191Z,48.60
2018-10-16T14:19:20.687Z,49.56
2018-10-16T14:21:49.304Z,49.60
2018-10-16T14:24:17.768Z,48.00
2018-10-16T14:26:46.584Z,48.79
2018-10-16T14:29:15.157Z,49.59
2018-10-16T14:31:43.735Z,49.38
2018-10-16T14:34:12.368Z,49.73
2018-10-16T14:36:40.922Z,49.03
2018-10-16T14:39:11.700Z,50.14
2018-10-16T14:41:40.236Z,50.08
2018-10-16T14:44:09.349Z,50.75
2018-10-16T14:46:37.912Z,50.79
2018-10-16T14:49:06.572Z,51.39
2018-10-16T14:51:35.752Z,50.24
2018-10-16T14:54:04.342Z,50.55
2018-10-16T14:56:34.542Z,50.71
2018-10-16T14:59:04.354Z,51.18
2018-10-16T15:01:33.823Z,51.70
2018-10-16T15:04:03.334Z,50.07
2018-10-16T15:06:33.198Z,51.20
2018-10-16T15:09:01.770Z,50.20
2018-10-16T15:11:30.320Z,51.14
2018-10-16T15:13:59.963Z,50.25
2018-10-16T15:16:29.490Z,50.79
2018-10-16T15:18:58.085Z,50.99
2018-10-16T15:21:27.717Z,50.69
2018-10-16T15:23:58.520Z,51.45
2018-10-16T15:26:28.153Z,50.96
2018-10-16T15:28:58.847Z,52.01
2018-10-16T15:31:28.105Z,52.45
2018-10-16T15:33:58.677Z,52.93
2018-10-16T15:36:28.269Z,53.14
2018-10-16T15:38:57.881Z,53.88
2018-10-16T15:41:27.210Z,54.00
2018-10-16T15:43:55.773Z,54.60
2018-10-16T15:46:24.815Z,54.84
2018-10-16T15:48:54.990Z,55.00
2018-10-16T15:51:24.698Z,55.81
2018-10-16T15:53:55.224Z,56.26
2018-10-16T15:56:25.515Z,56.33
2018-10-16T15:58:54.102Z,56.68
2018-10-16T16:01:23.917Z,56.96
2018-10-16T16:03:53.615Z,57.46
2018-10-16T16:06:22.211Z,58.16
2018-10-16T16:08:51.857Z,58.33
2018-10-16T16:11:21.300Z,58.90
2018-10-16T16:13:50.788Z,60.01
2018-10-16T16:16:20.201Z,60.49
2018-10-16T16:18:48.795Z,60.53
2018-10-16T16:21:17.349Z,61.62
2018-10-16T16:23:46.833Z,62.16
2018-10-16T16:26:15.464Z,62.60
2018-10-16T16:28:44.931Z,62.87
2018-10-16T16:31:13.652Z,62.88
2018-10-16T16:33:43.078Z,63.10
2018-10-16T16:36:11.719Z,63.45
2018-10-16T16:38:41.263Z,64.03
2018-10-16T16:41:10.055Z,64.79
2018-10-16T16:43:38.905Z,64.45
2018-10-16T16:46:08.457Z,64.60
2018-10-16T16:48:37.923Z,65.28
2018-10-16T16:51:07.396Z,66.00
2018-10-16T16:53:36.983Z,65.64
2018-10-16T16:56:06.619Z,65.91
2018-10-16T16:58:35.751Z,65.59
2018-10-16T17:01:05.382Z,66.55
2018-10-16T17:03:35.036Z,66.17
2018-10-16T17:06:04.634Z,67.94
2018-10-16T17:08:33.560Z,68.57
2018-10-16T17:11:02.195Z,68.56
2018-10-16T17:13:30.797Z,68.00
2018-10-16T17:16:00.273Z,69.09
2018-10-16T17:18:28.972Z,68.75
2018-10-16T17:20:58.635Z,69.33
2018-10-16T17:23:28.250Z,70.07
2018-10-16T17:25:57.837Z,69.55
2018-10-16T17:28:28.302Z,70.24
2018-10-16T17:30:57.939Z,69.97
2018-10-16T17:33:27.538Z,69.91
2018-10-16T17:35:58.085Z,70.78
2018-10-16T17:38:29.058Z,70.37
2018-10-16T17:40:58.888Z,71.42
2018-10-16T17:43:27.606Z,71.90
2018-10-16T17:45:57.285Z,71.03
2018-10-16T17:48:27.395Z,71.54
2018-10-16T17:50:56.756Z,71.33
2018-10-16T17:53:27.422Z,71.99
2018-10-16T17:55:56.872Z,72.11
2018-10-16T17:58:25.836Z,72.43
2018-10-16T18:00:55.442Z,72.60
2018-10-16T18:03:25.590Z,72.66
2018-10-16T18:05:54.166Z,73.08
2018-10-16T18:08:23.746Z,73.40
2018-10-16T18:10:52.340Z,72.85
2018-10-16T18:13:20.894Z,73.18
2018-10-16T18:15:49.499Z,73.74
2018-10-16T18:18:18.234Z,74.05
2018-10-16T18:20:46.974Z,74.66
2018-10-16T18:23:15.544Z,74.52
2018-10-16T18:25:44.251Z,74.79
2018-10-16T18:28:13.869Z,74.81
2018-10-16T18:30:42.429Z,74.41
2018-10-16T18:33:12.247Z,73.96
2018-10-16T18:35:40.786Z,74.99
2018-10-16T18:38:09.370Z,74.42
2018-10-16T18:40:37.923Z,74.62
2018-10-16T18:43:06.557Z,74.56
2018-10-16T18:45:35.242Z,74.91
2018-10-16T18:48:04.905Z,75.13
2018-10-16T18:50:35.154Z,75.49
2018-10-16T18:53:07.395Z,76.13
2018-10-16T18:55:40.156Z,76.29
2018-10-16T18:58:09.012Z,76.17
2018-10-16T19:00:38.480Z,77.11
2018-10-16T19:03:07.589Z,77.09
2018-10-16T19:05:37.595Z,77.30
2018-10-16T19:08:06.625Z,78.88
2018-10-16T19:10:36.284Z,79.34
2018-10-16T19:13:05.620Z,79.74
2018-10-16T19:15:34.561Z,79.90
2018-10-16T19:18:05.590Z,79.54
2018-10-16T19:20:43.267Z,79.42
2018-10-16T19:23:21.889Z,80.26
2018-10-16T19:25:52.884Z,80.10
2018-10-16T19:28:26.617Z,80.62
2018-10-16T19:30:56.389Z,81.35
2018-10-16T19:33:28.439Z,81.50
2018-10-16T19:35:58.984Z,82.15
2018-10-16T19:38:30.534Z,82.86
2018-10-16T19:41:01.471Z,82.83
2018-10-16T19:43:32.574Z,82.39
2018-10-16T19:46:02.728Z,81.15
2018-10-16T19:48:33.138Z,80.85
2018-10-16T19:51:01.917Z,81.21
2018-10-16T19:53:33.201Z,81.64
2018-10-16T19:56:03.955Z,81.38
2018-10-16T19:58:34.126Z,81.31
2018-10-16T20:01:04.309Z,82.05
2018-10-16T20:03:32.871Z,82.70
2018-10-16T20:06:03.286Z,82.34
2018-10-16T20:08:32.839Z,83.04
2018-10-16T20:11:02.659Z,82.52
2018-10-16T20:13:32.973Z,82.20
2018-10-16T20:16:03.828Z,82.78
2018-10-16T20:18:35.074Z,82.69
2018-10-16T20:21:04.513Z,82.49
2018-10-16T20:23:33.592Z,82.50
2018-10-16T20:26:02.340Z,83.19
2018-10-16T20:28:31.134Z,83.58
2018-10-16T20:30:59.914Z,83.13
2018-10-16T20:33:28.461Z,83.78
2018-10-16T20:35:57.632Z,84.89
2018-10-16T20:38:27.204Z,85.06
2018-10-16T20:40:56.855Z,85.42
2018-10-16T20:43:25.970Z,84.94
2018-10-16T20:45:56.145Z,85.74
2018-10-16T20:48:25.752Z,85.64
2018-10-16T20:50:56.202Z,85.64
2018-10-16T20:53:25.406Z,86.14
2018-10-16T20:55:55.455Z,86.83
2018-10-16T20:58:24.051Z,86.78
2018-10-16T21:00:53.835Z,86.16
2018-10-16T21:03:22.412Z,86.71
2018-10-16T21:05:52.065Z,87.23
2018-10-16T21:08:20.547Z,86.59
2018-10-16T21:10:49.254Z,86.25
2018-10-16T21:13:17.825Z,85.26
2018-10-16T21:15:46.428Z,84.88
2018-10-16T21:18:15.007Z,85.57
2018-10-16T21:20:43.719Z,85.18
2018-10-16T21:23:12.267Z,85.87
2018-10-16T21:25:41.819Z,86.10
2018-10-16T21:28:11.241Z,86.30
2018-10-16T21:30:40.662Z,86.52
2018-10-16T21:33:09.188Z,87.06
2018-10-16T21:35:38.738Z,87.07
2018-10-16T21:38:08.195Z,87.18
2018-10-16T21:40:37.611Z,87.53
2018-10-16T21:43:06.568Z,87.61
2018-10-16T21:45:35.133Z,88.25
2018-10-16T21:48:03.734Z,88.07
2018-10-16T21:50:33.116Z,87.91
2018-10-16T21:53:01.921Z,88.43
2018-10-16T21:55:30.446Z,88.58
2018-10-16T21:57:58.992Z,88.63
2018-10-16T22:00:33.297Z,88.84
2018-10-16T22:03:01.873Z,89.49
2018-10-16T22:05:30.411Z,89.75
2018-10-16T22:07:58.976Z,89.90
2018-10-16T22:10:27.935Z,89.66
2018-10-16T22:12:57.411Z,89.46
2018-10-16T22:15:26.789Z,89.11
2018-10-16T22:17:56.918Z,89.17
2018-10-16T22:20:26.136Z,89.43
2018-10-16T22:22:55.662Z,88.74
2018-10-16T22:25:25.488Z,88.99
2018-10-16T22:27:55.489Z,89.29
2018-10-16T22:30:24.042Z,89.54
2018-10-16T22:32:53.588Z,89.50
2018-10-16T22:35:22.234Z,89.67
2018-10-16T22:37:50.806Z,89.72
2018-10-16T22:40:19.411Z,89.42
2018-10-16T22:42:47.960Z,89.51
2018-10-16T22:45:16.536Z,89.68
2018-10-16T22:47:45.127Z,89.34
2018-10-16T22:50:13.996Z,89.43
2018-10-16T22:52:43.558Z,89.62
2018-10-16T22:55:12.252Z,89.83
2018-10-16T22:57:41.693Z,89.58
2018-10-16T23:00:14.470Z,89.78
2018-10-16T23:02:43.260Z,89.63
2018-10-16T23:05:11.959Z,89.85
2018-10-16T23:07:41.598Z,89.84
2018-10-16T23:10:11.148Z,89.86
2018-10-16T23:12:39.672Z,89.78
2018-10-16T23:15:10.539Z,89.97
2018-10-16T23:17:40.341Z,89.41
2018-10-16T23:20:11.370Z,89.12
2018-10-16T23:22:40.933Z,89.00
2018-10-16T23:25:10.558Z,88.55
2018-10-16T23:27:39.964Z,89.02
2018-10-16T23:30:09.567Z,88.89
2018-10-16T23:32:38.407Z,89.63
2018-10-16T23:35:07.101Z,89.54
2018-10-16T23:37:36.608Z,89.82
2018-10-16T23:40:06.573Z,90.52
2018-10-16T23:42:35.114Z,90.89
2018-10-16T23:45:03.880Z,90.59
2018-10-16T23:47:32.463Z,90.85
2018-10-16T23:50:01.107Z,90.62
2018-10-16T23:52:30.661Z,90.85
2018-10-16T23:54:59.293Z,90.83
2018-10-16T23:57:28.750Z,90.65
2018-10-16T23:59:58.272Z,90.24
